Wendy C — WYB6131 — position and weather

sailwx.info

Track history (hours):
 
Tides and Currents Weather Stations Pressure Air Temp Water Temp Dewpoint Dewpoint Depression Visibility Wind Speed Wind Dir Waves Ship Positions

Wendy C

Owner: Harbor Towing & Fleeting, Inc., Metairie, LA. More information available from US FCC via Universal Licensing System and Coast Guard Vessel Documentation Center.

Last reported at 2015-Mar-01 18:16 UTC. Time now 2015-Mar-01 19:23 UTC.
Position N 29°56' W 090°00'.

Length 19 m; draft 3 m.

Type: Towing. MMSI: 366160126.

Date/timePositionNaut miles runAvg speedWind from/ knotsBaromVisibWave heightAir tempDewpointWater temp
2015-Mar-01 18:16N 29°56' W 090°00'0 0.0
2015-Mar-01 16:19N 29°56' W 090°00'0 0.0
2015-Mar-01 15:22N 29°56' W 090°00'0 0.0
2015-Mar-01 14:25N 29°56' W 090°00'0 0.0
2015-Mar-01 13:10N 29°56' W 090°00'0 0.0
2015-Mar-01 12:30N 29°56' W 090°00'0 0.0
2015-Mar-01 11:33N 29°56' W 090°00'0 0.0
2015-Mar-01 10:29N 29°56' W 090°00'0 0.0
2015-Mar-01 09:31N 29°56' W 090°00'0 0.0
2015-Mar-01 08:25N 29°56' W 090°00'0 0.0
2015-Mar-01 07:32N 29°56' W 090°00'0 0.0
2015-Mar-01 06:33N 29°56' W 090°00'0 0.0
2015-Mar-01 05:33N 29°56' W 090°00'0 0.0
2015-Mar-01 04:26N 29°56' W 090°00'0 0.0
2015-Mar-01 03:15N 29°56' W 090°00'1 0.3
2015-Mar-01 01:25N 29°56' W 089°60'4 0.3
2015-Feb-28 14:31N 29°59' W 090°01'3 2.2
2015-Feb-28 13:04N 29°56' W 090°00'0 0.0
2015-Feb-28 12:15N 29°56' W 090°00'0 0.0
2015-Feb-28 11:07N 29°56' W 090°00'0 0.0
2015-Feb-28 10:11N 29°56' W 090°00'0 0.4
2015-Feb-28 09:32N 29°56' W 090°00'0 0.0
2015-Feb-28 08:33N 29°56' W 090°00'0 0.0
2015-Feb-28 07:24N 29°56' W 090°00'0 0.0
2015-Feb-28 06:29N 29°56' W 090°00'0 0.0
2015-Feb-28 05:33N 29°56' W 090°00'0 0.0
2015-Feb-28 04:33N 29°56' W 090°00'0 0.0
2015-Feb-28 03:33N 29°56' W 090°00'0 0.1
2015-Feb-28 02:27N 29°56' W 090°00'0 0.3
2015-Feb-28 01:32N 29°56' W 090°00'2 1.8
2015-Feb-28 00:31N 29°58' W 090°02'1 0.9
2015-Feb-27 23:28N 29°59' W 090°01'0 0.0
2015-Feb-27 22:32N 29°59' W 090°01'0 0.0
2015-Feb-27 21:32N 29°59' W 090°01'5 4.5
2015-Feb-27 20:28N 30°00' W 089°56'5 0.4
2015-Feb-27 05:12N 29°56' W 090°00'0 0.0
2015-Feb-27 04:26N 29°56' W 090°00'0 0.0
2015-Feb-27 03:03N 29°56' W 090°00'0 0.0
2015-Feb-27 02:31N 29°56' W 090°00'0 0.0
2015-Feb-27 01:31N 29°56' W 090°00'2 1.9
2015-Feb-27 00:29N 29°58' W 090°02'2 1.1
2015-Feb-26 22:31N 30°00' W 090°01'0 0.0
2015-Feb-26 21:31N 30°00' W 090°01'2 2.2
2015-Feb-26 20:31N 29°58' W 090°02'2 0.2
2015-Feb-26 09:17N 29°56' W 090°00'0 0.0
2015-Feb-26 08:33N 29°56' W 090°00'0 0.0
2015-Feb-26 07:31N 29°56' W 090°00'0 0.0
2015-Feb-26 06:32N 29°56' W 090°00'0 0.0
2015-Feb-26 05:32N 29°56' W 090°00'2115.9
2015-Feb-26 04:14N 29°55' W 090°24'2326.0
2015-Feb-26 03:21N 29°55' W 089°58'4 4.7
2015-Feb-26 02:31N 29°58' W 090°02'2 1.6
2015-Feb-26 01:31N 29°59' W 090°01'2 1.8
2015-Feb-26 00:34N 29°58' W 090°02'2 2.0
2015-Feb-25 23:33N 29°56' W 090°00'0 0.0
2015-Feb-25 22:30N 29°56' W 090°00'0 0.0
2015-Feb-25 10:16N 29°56' W 090°00'0 0.0
2015-Feb-25 08:33N 29°56' W 090°00'0 0.0
2015-Feb-25 06:28N 29°56' W 090°00'0 0.1
2015-Feb-25 05:28N 29°56' W 090°00'0 0.0
2015-Feb-25 03:09N 29°56' W 090°00'0 0.0
2015-Feb-25 02:33N 29°56' W 090°00'0 0.0
2015-Feb-25 01:19N 29°56' W 090°00'2 2.6
2015-Feb-25 00:33N 29°58' W 090°02'1 1.0
2015-Feb-24 23:32N 29°59' W 090°01'0 0.0
2015-Feb-24 22:32N 29°59' W 090°01'0 0.3
2015-Feb-24 21:33N 29°59' W 090°01'0 0.0
2015-Feb-24 20:27N 29°59' W 090°01'0 0.4
2015-Feb-24 19:33N 29°60' W 090°01'0 0.4
2015-Feb-24 18:28N 29°59' W 090°01'0 0.4
2015-Feb-24 17:31N 29°60' W 090°01'1 0.1
2015-Feb-24 06:11N 29°60' W 090°00'0 0.0
2015-Feb-24 05:32N 29°60' W 090°00'3 1.7
2015-Feb-24 04:05N 29°58' W 090°02'1 1.1
2015-Feb-24 03:33N 29°57' W 090°01'2 1.5
2015-Feb-24 02:10N 29°56' W 089°60'1 0.8
2015-Feb-24 01:06N 29°56' W 090°00'0 0.0
2015-Feb-24 00:30N 29°56' W 090°00'0 0.1
2015-Feb-23 22:32N 29°56' W 090°00'0 0.3
2015-Feb-23 21:29N 29°56' W 090°00'0 0.1
2015-Feb-23 20:15N 29°56' W 090°00'0 0.2
2015-Feb-23 19:23N 29°56' W 090°00'2 2.6
2015-Feb-23 18:32N 29°58' W 090°02'1 0.9
2015-Feb-23 17:32N 29°59' W 090°01'3 2.6
2015-Feb-23 16:33N 29°56' W 090°00'0 0.2
2015-Feb-23 15:25N 29°56' W 090°00'1 0.1
2015-Feb-22 19:18N 29°56' W 089°59'1 0.6
2015-Feb-22 17:05N 29°56' W 090°00'0 0.0
2015-Feb-22 16:15N 29°56' W 090°00'0 0.0
2015-Feb-22 14:23N 29°56' W 090°00'2 0.3
2015-Feb-22 07:16N 29°58' W 090°01'2 0.4
2015-Feb-22 01:32N 29°56' W 090°00'0 0.0
2015-Feb-22 00:17N 29°56' W 090°00'3 2.4
2015-Feb-21 23:06N 29°59' W 090°01'2 3.1
2015-Feb-21 22:29N 29°60' W 089°59'2 1.9
2015-Feb-21 21:18N 29°59' W 090°01'1 1.6
2015-Feb-21 20:30N 29°57' W 090°02'1 1.4
2015-Feb-21 19:32N 29°56' W 090°00'0 0.0
2015-Feb-21 18:30N 29°56' W 090°00'0 0.0
2015-Feb-21 17:31N 29°56' W 090°00'0 0.0
2015-Feb-21 16:31N 29°56' W 090°00'0 0.2
2015-Feb-21 15:33N 29°56' W 090°00'2 2.3
2015-Feb-21 14:34N 29°58' W 090°01'2 1.8
2015-Feb-21 13:33N 29°60' W 090°00'0 0.1
2015-Feb-21 12:30N 29°60' W 090°00'0 0.0
2015-Feb-21 11:33N 29°60' W 090°00'2 2.0
2015-Feb-21 10:33N 29°58' W 090°02'1 0.8
2015-Feb-21 09:33N 29°57' W 090°02'2 0.2
2015-Feb-20 22:04N 29°56' W 090°00'0 0.0
2015-Feb-20 19:29N 29°56' W 090°00'2 0.9
2015-Feb-20 17:09N 29°58' W 090°02'2 2.6
2015-Feb-20 16:29N 29°60' W 090°01'2 2.2
2015-Feb-20 15:33N 29°58' W 090°02'2 1.8
2015-Feb-20 14:32N 29°56' W 090°00'0 0.0
2015-Feb-20 13:33N 29°56' W 090°00'0 0.0
2015-Feb-20 12:29N 29°56' W 090°00'0 0.0
2015-Feb-20 11:33N 29°56' W 090°00'0 0.0
2015-Feb-20 10:32N 29°56' W 090°00'0 0.0
2015-Feb-20 09:33N 29°56' W 090°00'0 0.0
2015-Feb-20 08:31N 29°56' W 090°00'0 0.0
2015-Feb-20 07:30N 29°56' W 090°00'0 0.0
2015-Feb-20 06:32N 29°56' W 090°00'1 0.6
2015-Feb-20 05:31N 29°56' W 089°60'1 0.1
2015-Feb-19 19:18N 29°56' W 090°00'0 0.0
2015-Feb-19 18:23N 29°56' W 090°00'  
Track history (hours):
 
Tides and Currents Weather Stations Pressure Air Temp Water Temp Dewpoint Dewpoint Depression Visibility Wind Speed Wind Dir Waves Ship Positions

Wendy C

Owner: Harbor Towing & Fleeting, Inc., Metairie, LA. More information available from US FCC via Universal Licensing System and Coast Guard Vessel Documentation Center.

Last reported at 2015-Mar-01 18:16 UTC. Time now 2015-Mar-01 19:23 UTC.
Position N 29°56' W 090°00'.

Length 19 m; draft 3 m.

Type: Towing. MMSI: 366160126.

Date/timePositionNaut miles runAvg speedWind from/ knotsBaromVisibWave heightAir tempDewpointWater temp
2015-Mar-01 18:16N 29°56' W 090°00'0 0.0
2015-Mar-01 16:19N 29°56' W 090°00'0 0.0
2015-Mar-01 15:22N 29°56' W 090°00'0 0.0
2015-Mar-01 14:25N 29°56' W 090°00'0 0.0
2015-Mar-01 13:10N 29°56' W 090°00'0 0.0
2015-Mar-01 12:30N 29°56' W 090°00'0 0.0
2015-Mar-01 11:33N 29°56' W 090°00'0 0.0
2015-Mar-01 10:29N 29°56' W 090°00'0 0.0
2015-Mar-01 09:31N 29°56' W 090°00'0 0.0
2015-Mar-01 08:25N 29°56' W 090°00'0 0.0
2015-Mar-01 07:32N 29°56' W 090°00'0 0.0
2015-Mar-01 06:33N 29°56' W 090°00'0 0.0
2015-Mar-01 05:33N 29°56' W 090°00'0 0.0
2015-Mar-01 04:26N 29°56' W 090°00'0 0.0
2015-Mar-01 03:15N 29°56' W 090°00'1 0.3
2015-Mar-01 01:25N 29°56' W 089°60'4 0.3
2015-Feb-28 14:31N 29°59' W 090°01'3 2.2
2015-Feb-28 13:04N 29°56' W 090°00'0 0.0
2015-Feb-28 12:15N 29°56' W 090°00'0 0.0
2015-Feb-28 11:07N 29°56' W 090°00'0 0.0
2015-Feb-28 10:11N 29°56' W 090°00'0 0.4
2015-Feb-28 09:32N 29°56' W 090°00'0 0.0
2015-Feb-28 08:33N 29°56' W 090°00'0 0.0
2015-Feb-28 07:24N 29°56' W 090°00'0 0.0
2015-Feb-28 06:29N 29°56' W 090°00'0 0.0
2015-Feb-28 05:33N 29°56' W 090°00'0 0.0
2015-Feb-28 04:33N 29°56' W 090°00'0 0.0
2015-Feb-28 03:33N 29°56' W 090°00'0 0.1
2015-Feb-28 02:27N 29°56' W 090°00'0 0.3
2015-Feb-28 01:32N 29°56' W 090°00'2 1.8
2015-Feb-28 00:31N 29°58' W 090°02'1 0.9
2015-Feb-27 23:28N 29°59' W 090°01'0 0.0
2015-Feb-27 22:32N 29°59' W 090°01'0 0.0
2015-Feb-27 21:32N 29°59' W 090°01'5 4.5
2015-Feb-27 20:28N 30°00' W 089°56'5 0.4
2015-Feb-27 05:12N 29°56' W 090°00'0 0.0
2015-Feb-27 04:26N 29°56' W 090°00'0 0.0
2015-Feb-27 03:03N 29°56' W 090°00'0 0.0
2015-Feb-27 02:31N 29°56' W 090°00'0 0.0
2015-Feb-27 01:31N 29°56' W 090°00'2 1.9
2015-Feb-27 00:29N 29°58' W 090°02'2 1.1
2015-Feb-26 22:31N 30°00' W 090°01'0 0.0
2015-Feb-26 21:31N 30°00' W 090°01'2 2.2
2015-Feb-26 20:31N 29°58' W 090°02'2 0.2
2015-Feb-26 09:17N 29°56' W 090°00'0 0.0
2015-Feb-26 08:33N 29°56' W 090°00'0 0.0
2015-Feb-26 07:31N 29°56' W 090°00'0 0.0
2015-Feb-26 06:32N 29°56' W 090°00'0 0.0
2015-Feb-26 05:32N 29°56' W 090°00'2115.9
2015-Feb-26 04:14N 29°55' W 090°24'2326.0
2015-Feb-26 03:21N 29°55' W 089°58'4 4.7
2015-Feb-26 02:31N 29°58' W 090°02'2 1.6
2015-Feb-26 01:31N 29°59' W 090°01'2 1.8
2015-Feb-26 00:34N 29°58' W 090°02'2 2.0
2015-Feb-25 23:33N 29°56' W 090°00'0 0.0
2015-Feb-25 22:30N 29°56' W 090°00'0 0.0
2015-Feb-25 10:16N 29°56' W 090°00'0 0.0
2015-Feb-25 08:33N 29°56' W 090°00'0 0.0
2015-Feb-25 06:28N 29°56' W 090°00'0 0.1
2015-Feb-25 05:28N 29°56' W 090°00'0 0.0
2015-Feb-25 03:09N 29°56' W 090°00'0 0.0
2015-Feb-25 02:33N 29°56' W 090°00'0 0.0
2015-Feb-25 01:19N 29°56' W 090°00'2 2.6
2015-Feb-25 00:33N 29°58' W 090°02'1 1.0
2015-Feb-24 23:32N 29°59' W 090°01'0 0.0
2015-Feb-24 22:32N 29°59' W 090°01'0 0.3
2015-Feb-24 21:33N 29°59' W 090°01'0 0.0
2015-Feb-24 20:27N 29°59' W 090°01'0 0.4
2015-Feb-24 19:33N 29°60' W 090°01'0 0.4
2015-Feb-24 18:28N 29°59' W 090°01'0 0.4
2015-Feb-24 17:31N 29°60' W 090°01'1 0.1
2015-Feb-24 06:11N 29°60' W 090°00'0 0.0
2015-Feb-24 05:32N 29°60' W 090°00'3 1.7
2015-Feb-24 04:05N 29°58' W 090°02'1 1.1
2015-Feb-24 03:33N 29°57' W 090°01'2 1.5
2015-Feb-24 02:10N 29°56' W 089°60'1 0.8
2015-Feb-24 01:06N 29°56' W 090°00'0 0.0
2015-Feb-24 00:30N 29°56' W 090°00'0 0.1
2015-Feb-23 22:32N 29°56' W 090°00'0 0.3
2015-Feb-23 21:29N 29°56' W 090°00'0 0.1
2015-Feb-23 20:15N 29°56' W 090°00'0 0.2
2015-Feb-23 19:23N 29°56' W 090°00'2 2.6
2015-Feb-23 18:32N 29°58' W 090°02'1 0.9
2015-Feb-23 17:32N 29°59' W 090°01'3 2.6
2015-Feb-23 16:33N 29°56' W 090°00'0 0.2
2015-Feb-23 15:25N 29°56' W 090°00'1 0.1
2015-Feb-22 19:18N 29°56' W 089°59'1 0.6
2015-Feb-22 17:05N 29°56' W 090°00'0 0.0
2015-Feb-22 16:15N 29°56' W 090°00'0 0.0
2015-Feb-22 14:23N 29°56' W 090°00'2 0.3
2015-Feb-22 07:16N 29°58' W 090°01'2 0.4
2015-Feb-22 01:32N 29°56' W 090°00'0 0.0
2015-Feb-22 00:17N 29°56' W 090°00'3 2.4
2015-Feb-21 23:06N 29°59' W 090°01'2 3.1
2015-Feb-21 22:29N 29°60' W 089°59'2 1.9
2015-Feb-21 21:18N 29°59' W 090°01'1 1.6
2015-Feb-21 20:30N 29°57' W 090°02'1 1.4
2015-Feb-21 19:32N 29°56' W 090°00'0 0.0
2015-Feb-21 18:30N 29°56' W 090°00'0 0.0
2015-Feb-21 17:31N 29°56' W 090°00'0 0.0
2015-Feb-21 16:31N 29°56' W 090°00'0 0.2
2015-Feb-21 15:33N 29°56' W 090°00'2 2.3
2015-Feb-21 14:34N 29°58' W 090°01'2 1.8
2015-Feb-21 13:33N 29°60' W 090°00'0 0.1
2015-Feb-21 12:30N 29°60' W 090°00'0 0.0
2015-Feb-21 11:33N 29°60' W 090°00'2 2.0
2015-Feb-21 10:33N 29°58' W 090°02'1 0.8
2015-Feb-21 09:33N 29°57' W 090°02'2 0.2
2015-Feb-20 22:04N 29°56' W 090°00'0 0.0
2015-Feb-20 19:29N 29°56' W 090°00'2 0.9
2015-Feb-20 17:09N 29°58' W 090°02'2 2.6
2015-Feb-20 16:29N 29°60' W 090°01'2 2.2
2015-Feb-20 15:33N 29°58' W 090°02'2 1.8
2015-Feb-20 14:32N 29°56' W 090°00'0 0.0
2015-Feb-20 13:33N 29°56' W 090°00'0 0.0
2015-Feb-20 12:29N 29°56' W 090°00'0 0.0
2015-Feb-20 11:33N 29°56' W 090°00'0 0.0
2015-Feb-20 10:32N 29°56' W 090°00'0 0.0
2015-Feb-20 09:33N 29°56' W 090°00'0 0.0
2015-Feb-20 08:31N 29°56' W 090°00'0 0.0
2015-Feb-20 07:30N 29°56' W 090°00'0 0.0
2015-Feb-20 06:32N 29°56' W 090°00'1 0.6
2015-Feb-20 05:31N 29°56' W 089°60'1 0.1
2015-Feb-19 19:18N 29°56' W 090°00'0 0.0
2015-Feb-19 18:23N 29°56' W 090°00'  

Dump ship's entire track history